Time;durP1;ratioP1;P1;durP2;ratioP2;P2;SDS_P1;SDS_P2;PMS_P1;PMS_P2;Temp;Humidity;BMP_temperature;BMP_pressure;BME280_temperature;BME280_humidity;BME280_pressure;Samples;Min_cycle;Max_cycle;Signal;HPM_P1;HPM_P2
2022/07/15 00:01:09;;;;;;;9.32;1.52;;;17.90;90.50;;;;;;5137356;27;45192;-75
2022/07/15 00:03:36;;;;;;;3.00;1.48;;;17.90;90.60;;;;;;5140608;27;47296;-75
2022/07/15 00:06:02;;;;;;;6.60;1.50;;;17.90;91.00;;;;;;5133562;27;45760;-75
2022/07/15 00:08:30;;;;;;;8.88;1.55;;;17.90;90.70;;;;;;5143656;27;45556;-75
2022/07/15 00:10:57;;;;;;;5.07;1.50;;;17.80;90.70;;;;;;5139906;27;45429;-75
2022/07/15 00:13:25;;;;;;;6.47;1.58;;;17.80;90.90;;;;;;5134222;27;48102;-75
2022/07/15 00:15:52;;;;;;;3.85;1.30;;;17.80;91.10;;;;;;5135492;27;45397;-75
2022/07/15 00:18:18;;;;;;;6.78;1.13;;;17.80;90.90;;;;;;5137825;27;45326;-75
2022/07/15 00:20:45;;;;;;;3.75;1.45;;;17.80;91.50;;;;;;5136809;27;45343;-75
2022/07/15 00:23:12;;;;;;;4.45;1.13;;;17.80;91.30;;;;;;5139333;27;47308;-75
2022/07/15 00:25:40;;;;;;;4.68;1.30;;;17.90;91.30;;;;;;5139318;27;45447;-75
2022/07/15 00:28:09;;;;;;;4.95;1.45;;;17.90;91.20;;;;;;5141738;27;45423;-75
2022/07/15 00:30:37;;;;;;;3.53;1.40;;;17.80;91.30;;;;;;5137630;27;45519;-75
2022/07/15 00:33:04;;;;;;;4.68;1.50;;;17.70;91.50;;;;;;5139689;27;47519;-74
2022/07/15 00:35:34;;;;;;;4.38;1.45;;;17.70;91.50;;;;;;5141879;27;45401;-75
2022/07/15 00:38:00;;;;;;;2.97;1.20;;;17.70;91.50;;;;;;5135065;27;45370;-75
2022/07/15 00:40:28;;;;;;;8.55;1.42;;;17.60;91.60;;;;;;5138803;27;45418;-76
2022/07/15 00:42:56;;;;;;;4.72;1.50;;;17.60;91.70;;;;;;5132408;27;45590;-75
2022/07/15 00:45:24;;;;;;;6.65;1.55;;;17.60;91.60;;;;;;5138668;27;45420;-75
2022/07/15 00:47:52;;;;;;;6.93;1.42;;;17.70;91.80;;;;;;5138417;27;45366;-76
2022/07/15 00:50:21;;;;;;;5.13;1.45;;;17.60;91.50;;;;;;5136405;27;45267;-75
2022/07/15 00:52:52;;;;;;;6.43;1.33;;;17.60;91.80;;;;;;5140110;27;45629;-76
2022/07/15 00:55:21;;;;;;;5.68;1.85;;;17.70;91.60;;;;;;5133585;27;45358;-75
2022/07/15 00:57:50;;;;;;;9.68;1.50;;;17.70;91.90;;;;;;5141465;27;45276;-75
2022/07/15 01:00:18;;;;;;;4.07;1.50;;;17.70;91.80;;;;;;5131877;27;45272;-75
2022/07/15 01:02:50;;;;;;;5.53;1.90;;;17.60;92.10;;;;;;5137901;27;45468;-75
2022/07/15 01:05:18;;;;;;;7.57;1.90;;;17.60;92.10;;;;;;5137434;27;45402;-75
2022/07/15 01:07:45;;;;;;;9.82;1.75;;;17.60;92.20;;;;;;5137645;27;45295;-75
2022/07/15 01:10:12;;;;;;;3.25;1.23;;;17.70;92.10;;;;;;5140750;27;45343;-75
2022/07/15 01:12:41;;;;;;;7.43;1.70;;;17.60;92.20;;;;;;5135945;27;47764;-75
2022/07/15 01:15:09;;;;;;;4.40;1.40;;;17.50;92.70;;;;;;5134472;27;45246;-75
2022/07/15 01:17:37;;;;;;;5.68;1.73;;;17.60;92.40;;;;;;5135908;27;45481;-75
2022/07/15 01:20:05;;;;;;;5.35;1.63;;;17.60;92.20;;;;;;5138832;27;45450;-75
2022/07/15 01:22:33;;;;;;;8.35;1.50;;;17.70;92.20;;;;;;5140353;27;47493;-75
2022/07/15 01:25:00;;;;;;;6.65;1.77;;;17.70;92.10;;;;;;5132380;27;45361;-75
2022/07/15 01:27:28;;;;;;;3.85;1.45;;;17.80;92.30;;;;;;5137075;27;45294;-75
2022/07/15 01:29:54;;;;;;;4.32;1.20;;;17.70;92.40;;;;;;5142013;27;45575;-75
2022/07/15 01:32:21;;;;;;;6.15;1.63;;;17.70;92.20;;;;;;5140699;27;47638;-75
2022/07/15 01:34:48;;;;;;;10.05;1.60;;;17.70;92.20;;;;;;5129757;27;45380;-74
2022/07/15 01:37:15;;;;;;;3.97;1.40;;;17.80;92.20;;;;;;5126816;27;45438;-74
2022/07/15 01:39:43;;;;;;;5.55;1.42;;;17.70;92.30;;;;;;5138514;27;45418;-74
2022/07/15 01:42:10;;;;;;;8.30;1.60;;;17.80;92.40;;;;;;5135159;27;47656;-75
2022/07/15 01:44:37;;;;;;;5.53;1.50;;;17.70;92.30;;;;;;5140533;27;45330;-75
2022/07/15 01:47:04;;;;;;;2.55;1.40;;;17.70;92.30;;;;;;5136045;27;45330;-74
2022/07/15 01:49:32;;;;;;;6.47;1.67;;;17.80;92.20;;;;;;5149476;27;45467;-75
2022/07/15 01:52:01;;;;;;;5.90;1.48;;;17.90;92.40;;;;;;5141645;27;45481;-74
2022/07/15 01:54:30;;;;;;;6.05;1.30;;;17.90;91.70;;;;;;5134355;27;45238;-74
2022/07/15 01:56:58;;;;;;;5.20;1.38;;;17.90;92.30;;;;;;5149135;27;45600;-74
2022/07/15 01:59:26;;;;;;;3.30;1.40;;;17.90;92.30;;;;;;5147493;27;45606;-76
2022/07/15 02:01:54;;;;;;;12.20;1.70;;;17.90;92.30;;;;;;5135881;27;48284;-74
2022/07/15 02:04:21;;;;;;;6.63;1.40;;;17.90;92.30;;;;;;5147203;27;45766;-74
2022/07/15 02:06:48;;;;;;;7.15;1.45;;;17.80;92.60;;;;;;5148238;27;45471;-74
2022/07/15 02:09:15;;;;;;;8.15;1.70;;;17.70;92.40;;;;;;5147718;27;45477;-74
2022/07/15 02:11:42;;;;;;;6.55;1.58;;;17.80;92.30;;;;;;5137324;27;46296;-75
2022/07/15 02:14:11;;;;;;;10.18;1.70;;;17.90;92.00;;;;;;5144485;27;45455;-74
2022/07/15 02:16:38;;;;;;;8.13;2.28;;;17.80;92.10;;;;;;5139661;27;45284;-74
2022/07/15 02:19:05;;;;;;;7.13;1.85;;;18.00;92.40;;;;;;5127726;27;45510;-74
2022/07/15 02:21:32;;;;;;;5.38;1.80;;;17.90;92.20;;;;;;5134657;27;45500;-74
2022/07/15 02:23:59;;;;;;;9.23;1.80;;;17.90;92.20;;;;;;5142341;27;45262;-74
2022/07/15 02:26:26;;;;;;;4.65;1.60;;;17.80;92.70;;;;;;5145443;27;45441;-74
2022/07/15 02:28:53;;;;;;;4.60;1.63;;;17.90;92.50;;;;;;5144014;27;45321;-74
2022/07/15 02:31:22;;;;;;;6.90;1.50;;;17.90;92.70;;;;;;5147905;27;48041;-74
2022/07/15 02:33:51;;;;;;;5.95;2.03;;;17.90;92.80;;;;;;5136655;27;46233;-74
2022/07/15 02:36:18;;;;;;;4.40;1.40;;;17.80;92.60;;;;;;5144490;27;45436;-74
2022/07/15 02:38:45;;;;;;;2.85;1.55;;;17.80;93.20;;;;;;5143656;27;45354;-75
2022/07/15 02:41:12;;;;;;;8.00;1.67;;;17.70;93.30;;;;;;5145841;27;46860;-75
2022/07/15 02:43:41;;;;;;;4.15;1.40;;;17.60;93.20;;;;;;5144172;27;45367;-74
2022/07/15 02:46:09;;;;;;;6.93;1.67;;;17.70;92.70;;;;;;5134191;27;45334;-74
2022/07/15 02:48:38;;;;;;;7.80;1.90;;;17.60;93.00;;;;;;5142743;27;45514;-74
2022/07/15 02:51:05;;;;;;;8.55;2.08;;;17.60;93.30;;;;;;5137840;27;46407;-74
2022/07/15 02:53:32;;;;;;;4.70;1.45;;;17.60;93.20;;;;;;5145513;27;45495;-75
2022/07/15 02:56:00;;;;;;;8.55;1.67;;;17.50;93.00;;;;;;5137146;27;45563;-74
2022/07/15 02:58:27;;;;;;;9.73;1.70;;;17.50;92.80;;;;;;5146217;27;45472;-74
2022/07/15 03:00:54;;;;;;;8.50;1.50;;;17.40;92.70;;;;;;5126570;27;46707;-74
2022/07/15 03:03:20;;;;;;;6.90;1.83;;;17.40;92.50;;;;;;5136781;27;45408;-74
2022/07/15 03:05:49;;;;;;;4.55;1.38;;;17.40;93.00;;;;;;5135463;27;45263;-74
2022/07/15 03:08:16;;;;;;;7.63;1.42;;;17.50;92.60;;;;;;5138244;27;45460;-75
2022/07/15 03:10:43;;;;;;;7.10;1.98;;;17.50;92.30;;;;;;5145986;27;47606;-74
2022/07/15 03:13:10;;;;;;;10.10;1.80;;;17.50;92.50;;;;;;5145370;27;45272;-74
2022/07/15 03:15:36;;;;;;;6.30;1.77;;;17.30;92.90;;;;;;5142298;27;45355;-74
2022/07/15 03:18:03;;;;;;;7.10;1.40;;;17.30;93.00;;;;;;5145606;27;45636;-75
2022/07/15 03:20:30;;;;;;;7.07;1.40;;;17.30;92.90;;;;;;5146126;27;47333;-74
2022/07/15 03:22:58;;;;;;;5.88;1.58;;;17.40;92.90;;;;;;5141895;27;45383;-74
2022/07/15 03:25:25;;;;;;;6.07;1.80;;;17.30;92.70;;;;;;5128524;27;45443;-74
2022/07/15 03:27:52;;;;;;;6.15;1.45;;;17.30;92.60;;;;;;5136190;27;45274;-74
2022/07/15 03:30:20;;;;;;;8.27;2.10;;;17.30;92.80;;;;;;5126399;27;46603;-74
2022/07/15 03:32:47;;;;;;;4.25;1.50;;;17.30;92.80;;;;;;5143124;27;45480;-75
2022/07/15 03:35:14;;;;;;;7.45;2.00;;;17.30;93.10;;;;;;5134464;27;45450;-74
2022/07/15 03:37:41;;;;;;;11.82;1.80;;;17.30;92.70;;;;;;5108028;27;1077317;-74
2022/07/15 03:40:10;;;;;;;6.43;1.95;;;17.40;93.60;;;;;;5137343;27;46366;-75
2022/07/15 03:42:37;;;;;;;8.18;1.80;;;17.30;92.80;;;;;;5137706;27;45326;-74
2022/07/15 03:45:05;;;;;;;9.00;2.13;;;17.30;92.90;;;;;;5146258;27;45367;-75
2022/07/15 03:47:32;;;;;;;9.52;1.80;;;17.20;93.10;;;;;;5147572;27;45293;-74
2022/07/15 03:49:59;;;;;;;7.30;1.80;;;17.10;93.50;;;;;;5138589;27;47482;-74
2022/07/15 03:52:26;;;;;;;4.85;1.70;;;17.00;93.30;;;;;;5137391;27;45898;-74
2022/07/15 03:54:52;;;;;;;4.53;2.00;;;16.90;93.50;;;;;;5140641;27;45211;-74
2022/07/15 03:57:21;;;;;;;5.97;2.10;;;17.00;93.70;;;;;;5147398;27;45406;-74
2022/07/15 03:59:47;;;;;;;7.72;2.40;;;16.90;93.90;;;;;;5145909;27;47952;-75
2022/07/15 04:02:14;;;;;;;7.60;2.47;;;16.90;93.90;;;;;;5130075;27;45330;-74
2022/07/15 04:04:41;;;;;;;7.70;2.38;;;16.90;93.90;;;;;;5128286;27;45470;-74
2022/07/15 04:07:08;;;;;;;15.43;2.28;;;16.90;94.00;;;;;;5128861;27;45504;-74
2022/07/15 04:09:34;;;;;;;9.10;2.03;;;16.90;94.00;;;;;;5136830;27;47481;-75
2022/07/15 04:12:01;;;;;;;4.55;1.75;;;16.90;94.00;;;;;;5141613;27;45274;-74
2022/07/15 04:14:29;;;;;;;9.23;2.17;;;16.80;94.10;;;;;;5145600;27;45389;-74
2022/07/15 04:16:56;;;;;;;8.52;2.03;;;16.80;94.30;;;;;;5145712;27;45278;-74
2022/07/15 04:19:23;;;;;;;5.75;1.80;;;16.90;94.20;;;;;;5140011;27;46520;-74
2022/07/15 04:21:50;;;;;;;5.93;1.50;;;16.90;94.20;;;;;;5146354;27;45294;-74
2022/07/15 04:24:16;;;;;;;6.88;1.80;;;16.90;93.90;;;;;;5138488;27;45360;-74
2022/07/15 04:26:43;;;;;;;9.77;1.85;;;16.90;93.90;;;;;;5145360;27;45642;-74
2022/07/15 04:29:10;;;;;;;7.15;2.35;;;16.90;94.10;;;;;;5144641;27;47520;-75
2022/07/15 04:31:38;;;;;;;7.13;2.13;;;16.90;94.10;;;;;;5142223;27;45451;-74
2022/07/15 04:34:05;;;;;;;11.65;2.05;;;16.90;94.10;;;;;;5137886;27;45232;-74
2022/07/15 04:36:31;;;;;;;4.65;1.90;;;17.00;94.70;;;;;;5134438;27;45349;-74
2022/07/15 04:38:58;;;;;;;9.75;1.80;;;17.00;94.40;;;;;;5143310;27;46700;-74
2022/07/15 04:41:25;;;;;;;6.60;1.90;;;17.10;93.80;;;;;;5137583;27;45342;-74
2022/07/15 04:43:52;;;;;;;6.13;2.03;;;17.10;93.70;;;;;;5146096;27;45415;-74
2022/07/15 04:46:18;;;;;;;5.70;2.13;;;17.00;93.90;;;;;;5145437;27;45352;-74
2022/07/15 04:51:31;;;;;;;6.90;1.70;;;17.10;94.00;;;;;;5138315;27;45338;-75
2022/07/15 04:53:58;;;;;;;9.57;2.17;;;17.10;93.90;;;;;;5136078;27;45416;-74
2022/07/15 04:56:24;;;;;;;5.13;1.75;;;17.00;93.90;;;;;;5145325;27;45443;-74
2022/07/15 04:58:51;;;;;;;4.97;1.73;;;17.00;94.10;;;;;;5136030;27;47530;-74
2022/07/15 05:01:18;;;;;;;6.38;1.83;;;17.10;93.90;;;;;;5133719;27;45306;-74
2022/07/15 05:03:46;;;;;;;5.85;1.95;;;17.10;94.00;;;;;;5140321;27;45266;-75
2022/07/15 05:06:13;;;;;;;7.47;2.00;;;17.20;93.70;;;;;;5136069;27;45288;-74
2022/07/15 05:08:40;;;;;;;8.85;2.17;;;17.20;93.60;;;;;;5136203;27;48017;-74
2022/07/15 05:11:07;;;;;;;8.35;2.63;;;17.20;93.50;;;;;;5144267;27;45400;-74
2022/07/15 05:13:37;;;;;;;7.43;1.90;;;17.20;94.10;;;;;;5145506;27;45376;-74
2022/07/15 05:16:05;;;;;;;8.15;1.70;;;17.30;93.20;;;;;;5142422;27;45466;-73
2022/07/15 05:18:32;;;;;;;7.15;2.00;;;17.30;93.10;;;;;;5136544;27;45525;-74
2022/07/15 05:21:00;;;;;;;9.27;1.80;;;17.20;93.10;;;;;;5144955;27;45483;-73
2022/07/15 05:23:27;;;;;;;7.75;1.83;;;17.10;93.10;;;;;;5144584;27;45310;-75
2022/07/15 05:25:54;;;;;;;11.30;2.20;;;17.20;93.40;;;;;;5137923;27;45430;-74
2022/07/15 05:28:21;;;;;;;10.98;2.17;;;17.20;93.50;;;;;;5145350;27;45352;-74
2022/07/15 05:30:47;;;;;;;9.00;2.08;;;17.10;93.50;;;;;;5144722;27;45316;-74
2022/07/15 05:33:16;;;;;;;6.32;1.73;;;17.30;94.00;;;;;;5145257;27;45437;-74
2022/07/15 05:35:43;;;;;;;8.00;1.70;;;17.40;93.20;;;;;;5143919;27;45371;-74
2022/07/15 05:38:12;;;;;;;11.55;1.77;;;17.40;92.90;;;;;;5137829;27;46309;-75
2022/07/15 05:40:39;;;;;;;5.07;1.88;;;17.40;92.80;;;;;;5137231;27;45305;-74
2022/07/15 05:43:06;;;;;;;6.75;1.90;;;17.50;92.80;;;;;;5136069;27;45333;-74
2022/07/15 05:45:32;;;;;;;6.47;1.90;;;17.60;93.00;;;;;;5141043;27;45443;-74
2022/07/15 05:47:59;;;;;;;6.07;1.60;;;17.60;92.70;;;;;;5140518;27;47172;-74
2022/07/15 05:50:26;;;;;;;6.95;1.60;;;17.70;92.10;;;;;;5143931;27;45256;-74
2022/07/15 05:52:53;;;;;;;9.68;1.90;;;17.50;93.00;;;;;;5145111;27;45340;-74
2022/07/15 05:55:21;;;;;;;5.75;1.55;;;17.70;92.80;;;;;;5143502;27;45404;-75
2022/07/15 05:57:48;;;;;;;8.43;2.28;;;17.70;92.70;;;;;;5125250;27;46463;-74
2022/07/15 06:00:15;;;;;;;8.50;1.80;;;17.60;92.90;;;;;;5143323;27;45497;-74
2022/07/15 06:02:42;;;;;;;8.70;2.00;;;17.60;92.60;;;;;;5143433;27;45398;-75
2022/07/15 06:05:10;;;;;;;5.95;1.80;;;17.60;93.00;;;;;;5139096;27;45480;-75
2022/07/15 06:07:37;;;;;;;6.30;1.63;;;17.50;92.30;;;;;;5143054;27;46602;-74
2022/07/15 06:10:04;;;;;;;6.60;1.75;;;17.40;93.00;;;;;;5146475;27;45375;-74
2022/07/15 06:12:32;;;;;;;7.18;2.38;;;17.60;92.60;;;;;;5144482;27;45355;-74
2022/07/15 06:14:59;;;;;;;4.95;1.90;;;17.60;92.80;;;;;;5141394;27;45534;-74
2022/07/15 06:17:27;;;;;;;7.15;1.75;;;17.70;92.30;;;;;;5134903;27;47768;-74
2022/07/15 06:19:54;;;;;;;8.63;1.50;;;17.70;92.10;;;;;;5134711;27;45282;-74
2022/07/15 06:22:20;;;;;;;5.10;1.70;;;17.70;91.90;;;;;;5143975;27;45401;-74
2022/07/15 06:24:47;;;;;;;5.82;1.40;;;17.70;92.20;;;;;;5137580;27;45426;-74
2022/07/15 06:27:14;;;;;;;7.95;1.58;;;17.90;91.80;;;;;;5129032;27;45439;-75
2022/07/15 06:29:42;;;;;;;7.03;1.60;;;17.80;92.10;;;;;;5134040;27;46052;-75
2022/07/15 06:32:11;;;;;;;8.15;1.95;;;17.90;91.30;;;;;;5131228;27;45263;-74
2022/07/15 06:34:38;;;;;;;4.57;1.55;;;18.10;91.70;;;;;;5142711;27;45388;-74
2022/07/15 06:37:05;;;;;;;4.95;1.35;;;18.00;90.50;;;;;;5143422;27;46374;-74
2022/07/15 06:39:32;;;;;;;6.95;1.55;;;17.90;91.30;;;;;;5146746;27;45418;-74
2022/07/15 06:42:00;;;;;;;8.43;1.35;;;18.00;90.50;;;;;;5128685;27;45354;-74
2022/07/15 06:44:26;;;;;;;5.22;1.40;;;18.00;90.60;;;;;;5127670;27;45523;-75
2022/07/15 06:46:55;;;;;;;4.80;1.48;;;18.00;90.80;;;;;;5143689;27;47444;-74
2022/07/15 06:49:22;;;;;;;10.10;1.88;;;18.00;90.60;;;;;;5134702;27;45360;-74
2022/07/15 06:51:50;;;;;;;4.88;1.30;;;18.10;90.70;;;;;;5129241;27;45444;-74
2022/07/15 06:54:18;;;;;;;5.47;1.63;;;18.10;90.20;;;;;;5132351;27;45387;-74
2022/07/15 06:56:45;;;;;;;6.65;1.17;;;18.20;88.60;;;;;;5147921;27;47532;-74
2022/07/15 06:59:12;;;;;;;2.30;1.00;;;18.20;88.80;;;;;;5132115;27;45269;-75
2022/07/15 07:01:39;;;;;;;5.88;1.42;;;18.10;86.80;;;;;;5148668;27;45406;-74
2022/07/15 07:04:07;;;;;;;3.47;1.15;;;18.20;89.00;;;;;;5141855;27;45350;-74
2022/07/15 07:06:34;;;;;;;5.55;0.95;;;18.20;88.80;;;;;;5138942;27;45303;-74
2022/07/15 07:09:01;;;;;;;9.63;1.15;;;18.20;85.50;;;;;;5133933;27;45486;-74
2022/07/15 07:11:28;;;;;;;4.72;1.25;;;18.30;86.20;;;;;;5143993;27;45416;-75
2022/07/15 07:13:55;;;;;;;5.28;1.00;;;18.30;84.70;;;;;;5142903;27;45514;-74
2022/07/15 07:16:22;;;;;;;5.60;1.23;;;18.20;85.80;;;;;;5133687;27;47592;-74
2022/07/15 07:18:50;;;;;;;3.83;0.93;;;18.30;86.20;;;;;;5137413;27;45377;-74
2022/07/15 07:21:18;;;;;;;8.90;1.50;;;18.40;84.30;;;;;;5146219;27;45347;-74
2022/07/15 07:23:45;;;;;;;5.47;1.38;;;18.40;84.80;;;;;;5146332;27;45692;-74
2022/07/15 07:26:13;;;;;;;5.63;1.30;;;18.30;84.00;;;;;;5139691;27;46078;-74
2022/07/15 07:28:40;;;;;;;5.57;1.00;;;18.30;84.70;;;;;;5136311;27;45411;-74
2022/07/15 07:31:08;;;;;;;4.50;1.00;;;18.30;84.30;;;;;;5137314;27;45204;-74
2022/07/15 07:33:34;;;;;;;4.40;0.82;;;18.30;85.10;;;;;;5137120;27;45626;-74
2022/07/15 07:36:01;;;;;;;7.22;0.98;;;18.50;82.30;;;;;;5146265;27;46283;-74
2022/07/15 07:38:30;;;;;;;6.03;1.00;;;18.60;83.20;;;;;;5136420;27;45315;-74
2022/07/15 07:40:56;;;;;;;4.05;0.90;;;18.80;82.20;;;;;;5127437;27;45510;-74
2022/07/15 07:43:23;;;;;;;5.82;1.77;;;18.80;81.50;;;;;;5139706;27;45343;-74
2022/07/15 07:45:50;;;;;;;6.00;1.10;;;18.60;80.50;;;;;;5137062;27;47305;-74
2022/07/15 07:48:18;;;;;;;2.38;0.73;;;18.50;79.40;;;;;;5137415;27;45418;-74
2022/07/15 07:50:46;;;;;;;9.13;1.23;;;18.50;77.00;;;;;;5145872;27;45265;-74
2022/07/15 07:53:13;;;;;;;3.65;1.02;;;18.50;78.40;;;;;;5145507;27;45499;-74
2022/07/15 07:55:41;;;;;;;4.90;1.38;;;18.60;77.50;;;;;;5141704;27;45248;-74
2022/07/15 07:58:08;;;;;;;4.90;0.90;;;18.70;79.20;;;;;;5138887;27;45304;-74
2022/07/15 08:00:36;;;;;;;5.88;0.70;;;18.70;77.40;;;;;;5136035;27;45537;-75
2022/07/15 08:03:03;;;;;;;3.03;0.75;;;18.90;77.70;;;;;;5141422;27;45261;-74
2022/07/15 08:05:30;;;;;;;6.13;0.80;;;19.10;75.20;;;;;;5142063;27;45395;-74
2022/07/15 08:08:11;;;;;;;2.70;0.63;;;19.20;74.50;;;;;;5145809;27;45322;-75
2022/07/15 08:10:38;;;;;;;7.20;1.02;;;19.10;73.40;;;;;;5141277;27;45368;-74
2022/07/15 08:13:06;;;;;;;3.17;0.70;;;19.30;73.60;;;;;;5140209;27;45232;-74
2022/07/15 08:15:33;;;;;;;4.38;1.13;;;19.40;72.70;;;;;;5143690;27;46330;-74
2022/07/15 08:18:01;;;;;;;7.10;0.98;;;19.50;71.40;;;;;;5144856;27;45282;-74
2022/07/15 08:20:28;;;;;;;4.53;0.90;;;19.40;73.10;;;;;;5146130;27;45334;-75
2022/07/15 08:22:58;;;;;;;3.88;0.90;;;19.20;72.70;;;;;;5127254;27;45530;-74
2022/07/15 08:25:26;;;;;;;5.93;1.00;;;19.10;73.80;;;;;;5132191;27;45488;-74
2022/07/15 08:27:53;;;;;;;7.90;1.15;;;19.10;72.90;;;;;;5142867;27;45393;-74
2022/07/15 08:30:21;;;;;;;7.45;1.13;;;19.10;72.30;;;;;;5139328;27;45278;-74
2022/07/15 08:32:48;;;;;;;2.65;1.10;;;19.20;73.60;;;;;;5139048;27;45583;-75
2022/07/15 08:35:15;;;;;;;3.70;0.82;;;19.20;71.90;;;;;;5142307;27;47510;-74
2022/07/15 08:37:42;;;;;;;3.38;0.73;;;19.30;72.00;;;;;;5140118;27;45260;-75
2022/07/15 08:40:10;;;;;;;3.03;0.80;;;19.30;71.90;;;;;;5145190;27;45328;-74
2022/07/15 08:42:42;;;;;;;3.95;1.00;;;19.30;69.20;;;;;;5129883;27;45596;-74
2022/07/15 08:45:10;;;;;;;4.22;1.17;;;19.10;69.40;;;;;;5142916;27;47332;-74
2022/07/15 08:47:41;;;;;;;7.35;0.73;;;19.30;71.10;;;;;;5139651;27;45219;-74
2022/07/15 08:50:11;;;;;;;2.92;0.65;;;19.30;66.20;;;;;;5137424;27;45347;-75
2022/07/15 08:52:38;;;;;;;5.22;0.70;;;19.20;65.20;;;;;;5145782;27;45412;-74
2022/07/15 08:55:06;;;;;;;2.78;0.82;;;19.20;68.00;;;;;;5138549;27;45459;-74
2022/07/15 08:57:33;;;;;;;3.05;0.77;;;19.20;69.90;;;;;;5129179;27;45514;-74
2022/07/15 09:00:00;;;;;;;2.53;0.60;;;19.20;69.40;;;;;;5136448;27;45325;-74
2022/07/15 09:02:27;;;;;;;2.45;0.73;;;19.20;71.20;;;;;;5137432;27;45432;-74
2022/07/15 09:05:21;;;;;;;5.07;1.67;;;19.40;73.30;;;;;;5129497;27;46421;-74
2022/07/15 09:07:54;;;;;;;4.85;1.17;;;19.60;68.50;;;;;;5134301;27;45388;-74
2022/07/15 09:10:21;;;;;;;5.57;0.88;;;19.30;69.70;;;;;;5140973;27;45650;-74
2022/07/15 09:12:50;;;;;;;3.42;0.77;;;19.40;71.90;;;;;;5143151;27;45403;-74
2022/07/15 09:15:32;;;;;;;2.97;0.73;;;19.40;70.30;;;;;;5145900;27;45288;-75
2022/07/15 09:18:08;;;;;;;2.58;0.77;;;19.80;70.30;;;;;;5134822;27;45490;-74
2022/07/15 09:20:36;;;;;;;3.38;0.77;;;19.60;66.40;;;;;;5138513;27;45315;-74
2022/07/15 09:23:04;;;;;;;4.18;0.80;;;19.60;66.60;;;;;;5134799;27;46701;-74
2022/07/15 09:25:33;;;;;;;3.80;0.85;;;19.30;65.60;;;;;;5145187;27;46594;-74
2022/07/15 09:28:01;;;;;;;2.33;0.73;;;19.40;66.10;;;;;;5144194;27;45439;-74
2022/07/15 09:36:08;;;;;;;3.75;0.82;;;19.60;63.70;;;;;;5128424;27;45208;-74
2022/07/15 09:38:41;;;;;;;2.00;0.50;;;19.50;61.10;;;;;;5127304;27;45382;-74
2022/07/15 09:41:09;;;;;;;5.43;0.88;;;19.50;60.70;;;;;;5133052;27;45364;-74
2022/07/15 09:43:51;;;;;;;1.88;0.63;;;19.30;62.40;;;;;;5141939;27;45487;-74
2022/07/15 09:46:19;;;;;;;2.03;0.60;;;19.40;66.40;;;;;;5138230;27;45268;-74
2022/07/15 09:48:48;;;;;;;1.60;0.45;;;19.80;64.40;;;;;;5132027;27;45273;-74
2022/07/15 09:51:17;;;;;;;2.70;0.77;;;20.10;66.10;;;;;;5136205;27;45484;-74
2022/07/15 09:53:45;;;;;;;1.45;0.32;;;20.40;65.00;;;;;;5134516;27;45354;-74
2022/07/15 09:56:14;;;;;;;5.43;0.90;;;20.70;68.20;;;;;;5130933;27;46556;-74
2022/07/15 09:58:42;;;;;;;4.10;1.27;;;20.40;57.40;;;;;;5135300;27;45383;-74
2022/07/15 10:01:10;;;;;;;6.78;1.17;;;19.90;61.80;;;;;;5130318;27;45358;-74
2022/07/15 10:03:38;;;;;;;4.65;0.80;;;19.70;62.80;;;;;;5133276;27;45280;-74
2022/07/15 10:06:06;;;;;;;6.07;0.85;;;19.50;63.00;;;;;;5141052;27;47468;-74
2022/07/15 10:08:35;;;;;;;2.17;0.60;;;19.60;63.30;;;;;;5139988;27;45970;-74
2022/07/15 10:11:08;;;;;;;7.05;0.90;;;19.60;62.80;;;;;;5147110;27;45344;-74
2022/07/15 10:14:16;;;;;;;3.55;0.80;;;19.60;62.70;;;;;;5134714;27;45340;-74
2022/07/15 10:17:16;;;;;;;2.80;0.70;;;19.70;63.60;;;;;;5136974;27;47053;-74
2022/07/15 10:20:15;;;;;;;5.38;1.00;;;19.70;63.70;;;;;;5136439;27;45418;-74
2022/07/15 10:22:57;;;;;;;6.97;0.68;;;19.90;60.70;;;;;;5146278;27;45261;-74
2022/07/15 10:25:47;;;;;;;3.42;0.80;;;20.00;61.00;;;;;;5139739;27;45545;-74
2022/07/15 10:28:19;;;;;;;5.22;1.13;;;20.00;64.20;;;;;;5150271;27;47409;-74
2022/07/15 10:30:45;;;;;;;2.78;0.55;;;20.20;59.50;;;;;;5135575;27;45414;-75
2022/07/15 10:33:16;;;;;;;2.67;0.70;;;20.10;61.90;;;;;;5141364;27;45268;-74
2022/07/15 10:35:46;;;;;;;4.90;0.70;;;20.40;61.80;;;;;;5148329;27;45486;-75
2022/07/15 10:38:38;;;;;;;4.22;0.90;;;20.60;64.00;;;;;;5149712;27;46354;-75
2022/07/15 10:41:11;;;;;;;3.80;0.68;;;20.70;61.10;;;;;;5130278;27;45326;-76
2022/07/15 10:43:47;;;;;;;2.20;0.60;;;20.80;59.10;;;;;;5150174;27;45144;-75
2022/07/15 10:46:20;;;;;;;4.28;0.65;;;20.80;59.20;;;;;;5150231;27;45188;-75
2022/07/15 10:48:49;;;;;;;2.40;0.43;;;20.90;62.70;;;;;;5149105;27;45437;-75
2022/07/15 10:51:47;;;;;;;3.22;0.93;;;21.00;64.60;;;;;;5136438;27;45474;-75
2022/07/15 10:54:41;;;;;;;3.08;0.65;;;21.00;59.40;;;;;;5136168;27;45221;-75
2022/07/15 10:57:09;;;;;;;6.53;1.13;;;20.90;60.80;;;;;;5147594;27;45541;-75
2022/07/15 10:59:41;;;;;;;6.68;0.93;;;20.80;58.00;;;;;;5141743;27;46569;-75
2022/07/15 11:02:15;;;;;;;3.63;1.00;;;20.70;57.80;;;;;;5137539;27;45362;-74
2022/07/15 11:04:42;;;;;;;6.50;0.98;;;20.60;59.10;;;;;;5129014;27;45408;-76
2022/07/15 11:07:27;;;;;;;2.80;0.60;;;20.50;58.10;;;;;;5129844;27;45347;-77
2022/07/15 11:09:56;;;;;;;4.93;0.90;;;20.60;60.70;;;;;;5129514;27;45507;-77
2022/07/15 11:12:25;;;;;;;2.63;0.82;;;20.90;59.40;;;;;;5139352;27;45629;-75
2022/07/15 11:15:06;;;;;;;3.80;0.77;;;21.00;61.00;;;;;;5149785;27;45256;-76
2022/07/15 11:17:40;;;;;;;1.05;0.60;;;21.10;59.60;;;;;;5137599;27;45330;-73
2022/07/15 11:20:10;;;;;;;4.82;0.90;;;21.10;57.30;;;;;;5143437;27;45308;-75
2022/07/15 11:22:39;;;;;;;7.25;0.82;;;21.00;57.50;;;;;;5134788;27;46058;-76
2022/07/15 11:25:17;;;;;;;5.60;0.70;;;20.80;56.40;;;;;;5140462;27;45361;-75
2022/07/15 11:27:57;;;;;;;3.50;0.85;;;20.80;57.70;;;;;;5149599;27;45354;-75
2022/07/15 11:30:24;;;;;;;2.50;0.70;;;20.90;60.80;;;;;;5143759;27;47454;-75
2022/07/15 11:32:57;;;;;;;3.25;0.80;;;21.10;60.50;;;;;;5149457;27;46485;-76
2022/07/15 11:35:24;;;;;;;4.53;1.05;;;21.30;59.90;;;;;;5146491;27;45254;-76
2022/07/15 11:38:01;;;;;;;3.13;0.93;;;21.20;55.40;;;;;;5149015;27;45382;-76
2022/07/15 11:46:59;;;;;;;8.93;1.10;;;20.50;59.60;;;;;;5062376;28;45313;-76
2022/07/15 11:49:27;;;;;;;5.68;1.00;;;20.50;58.50;;;;;;5071442;28;45542;-76
2022/07/15 11:51:54;;;;;;;3.75;0.80;;;20.60;63.10;;;;;;5105079;27;46532;-78
2022/07/15 11:54:25;;;;;;;4.70;0.88;;;20.50;56.90;;;;;;5128797;27;45969;-76
2022/07/15 11:56:54;;;;;;;3.90;1.05;;;20.30;57.30;;;;;;5148117;27;45357;-76
2022/07/15 11:59:22;;;;;;;2.70;0.80;;;20.50;59.70;;;;;;5133373;27;45493;-75
2022/07/15 12:01:49;;;;;;;6.53;1.17;;;20.70;55.40;;;;;;5136671;27;46527;-75
2022/07/15 12:04:16;;;;;;;3.53;0.85;;;20.70;56.10;;;;;;5131986;27;45328;-74
2022/07/15 12:06:43;;;;;;;3.10;0.65;;;20.80;62.60;;;;;;5142004;27;45420;-77
2022/07/15 12:09:09;;;;;;;1.75;0.77;;;21.00;58.20;;;;;;5151301;27;45421;-76
2022/07/15 12:11:48;;;;;;;6.43;1.23;;;21.20;61.00;;;;;;5151797;27;45469;-76
2022/07/15 12:14:20;;;;;;;2.47;0.80;;;21.20;56.90;;;;;;5148158;27;45643;-76
2022/07/15 12:16:51;;;;;;;4.97;1.05;;;21.10;55.30;;;;;;5146825;27;45311;-75
2022/07/15 12:19:19;;;;;;;3.00;0.65;;;20.90;55.10;;;;;;5130648;27;45370;-75
2022/07/15 12:21:50;;;;;;;4.03;0.63;;;21.00;56.10;;;;;;5130015;27;46621;-74
2022/07/15 12:24:19;;;;;;;3.85;0.90;;;21.20;55.40;;;;;;5138033;27;45567;-75
2022/07/15 12:26:58;;;;;;;6.28;1.17;;;21.20;57.10;;;;;;5134807;27;45445;-74
2022/07/15 12:29:27;;;;;;;2.17;0.63;;;21.10;54.00;;;;;;5134220;27;45301;-76
2022/07/15 12:31:56;;;;;;;2.97;0.70;;;21.00;55.20;;;;;;5146357;27;46268;-74
2022/07/15 12:34:43;;;;;;;9.27;1.27;;;21.00;59.20;;;;;;5126111;27;45439;-74
2022/07/15 12:37:10;;;;;;;5.20;0.82;;;21.10;55.60;;;;;;5130121;27;45290;-75
2022/07/15 12:39:55;;;;;;;3.90;0.95;;;21.20;59.70;;;;;;5148210;27;45623;-76
2022/07/15 12:42:22;;;;;;;5.97;0.95;;;21.20;55.10;;;;;;5141246;27;46283;-76
2022/07/15 12:45:07;;;;;;;2.75;0.75;;;21.20;55.40;;;;;;5147622;27;45378;-76
2022/07/15 12:47:35;;;;;;;2.42;0.70;;;21.20;54.00;;;;;;5147770;27;45432;-75
2022/07/15 12:50:04;;;;;;;4.30;1.25;;;21.00;53.70;;;;;;5141186;27;45599;-75
2022/07/15 12:52:33;;;;;;;2.75;0.63;;;20.90;54.30;;;;;;5139274;27;47959;-75
2022/07/15 12:55:13;;;;;;;3.90;0.70;;;20.70;54.90;;;;;;5136769;27;45415;-75
2022/07/15 12:57:40;;;;;;;3.75;0.75;;;20.80;56.60;;;;;;5131067;27;45532;-75
2022/07/15 13:00:11;;;;;;;3.22;0.75;;;21.00;57.00;;;;;;5133929;27;45638;-73
2022/07/15 13:03:04;;;;;;;5.80;0.60;;;21.10;58.80;;;;;;5144266;27;46372;-75
2022/07/15 13:05:32;;;;;;;5.05;0.47;;;21.20;54.00;;;;;;5138651;27;45459;-74
2022/07/15 13:08:00;;;;;;;5.25;0.95;;;21.20;53.50;;;;;;5142500;27;45463;-75
2022/07/15 13:10:29;;;;;;;2.58;0.82;;;21.00;53.50;;;;;;5135791;27;45462;-74